Time;durP1;ratioP1;P1;durP2;ratioP2;P2;SDS_P1;SDS_P2;PMS_P1;PMS_P2;Temp;Humidity;BMP_temperature;BMP_pressure;BME280_temperature;BME280_humidity;BME280_pressure;Samples;Min_cycle;Max_cycle;Signal;HPM_P1;HPM_P2
2021/09/19 00:01:41;;;;;;;;;;;;;;;;;;5073177;28;20281;-73
2021/09/19 00:04:06;;;;;;;;;;;;;;;;;;5081462;28;19927;-74
2021/09/19 00:06:31;;;;;;;;;;;;;;;;;;5083621;28;19947;-74
2021/09/19 00:08:57;;;;;;;;;;;;;;;;;;5079616;28;19904;-74
2021/09/19 00:11:22;;;;;;;;;;;;;;;;;;5076042;28;19901;-74
2021/09/19 00:13:47;;;;;;;;;;;;;;;;;;5074773;28;19917;-74
2021/09/19 00:16:12;;;;;;;;;;;;;;;;;;5080932;28;19909;-74
2021/09/19 00:18:38;;;;;;;;;;;;;;;;;;5082408;28;19897;-74
2021/09/19 00:21:03;;;;;;;;;;;;;;;;;;5080988;28;19901;-74
2021/09/19 00:23:28;;;;;;;;;;;;;;;;;;5082451;28;19909;-75
2021/09/19 00:25:53;;;;;;;;;;;;;;;;;;5078223;28;19908;-74
2021/09/19 00:28:19;;;;;;;;;;;;;;;;;;5082962;28;20005;-74
2021/09/19 00:30:44;;;;;;;;;;;;;;;;;;5077148;28;19921;-74
2021/09/19 00:33:09;;;;;;;;;;;;;;;;;;5087370;28;19904;-74
2021/09/19 00:35:34;;;;;;;;;;;;;;;;;;5087463;28;19901;-74
2021/09/19 00:38:02;;;;;;;;;;;;;;;;;;5078872;28;20392;-74
2021/09/19 00:40:27;;;;;;;;;;;;;;;;;;5085209;28;19917;-74
2021/09/19 00:42:52;;;;;;;;;;;;;;;;;;5101522;28;19901;-74
2021/09/19 00:45:17;;;;;;;;;;;;;;;;;;5085013;28;19971;-74
2021/09/19 00:47:43;;;;;;;;;;;;;;;;;;5078537;28;19916;-74
2021/09/19 00:50:08;;;;;;;;;;;;;;;;;;5080365;28;20354;-74
2021/09/19 00:52:36;;;;;;;;;;;;;;;;;;5083612;28;19904;-76
2021/09/19 00:55:01;;;;;;;;;;;;;;;;;;5081113;28;19917;-74
2021/09/19 00:57:26;;;;;;;;;;;;;;;;;;5084474;28;19916;-74
2021/09/19 00:59:51;;;;;;;;;;;;;;;;;;5083645;28;19909;-75
2021/09/19 01:02:16;;;;;;;;;;;;;;;;;;5080813;28;19908;-73
2021/09/19 01:04:42;;;;;;;;;;;;;;;;;;5083294;28;20004;-73
2021/09/19 01:07:07;;;;;;;;;;;;;;;;;;5081110;28;19909;-74
2021/09/19 01:09:32;;;;;;;;;;;;;;;;;;5084262;28;19900;-74
2021/09/19 01:11:57;;;;;;;;;;;;;;;;;;5077561;28;19960;-74
2021/09/19 01:14:22;;;;;;;;;;;;;;;;;;5079797;28;19976;-74
2021/09/19 01:16:50;;;;;;;;;;;;;;;;;;5082063;28;19914;-74
2021/09/19 01:19:16;;;;;;;;;;;;;;;;;;5077220;28;20186;-74
2021/09/19 01:21:41;;;;;;;;;;;;;;;;;;5083666;28;20150;-74
2021/09/19 01:24:06;;;;;;;;;;;;;;;;;;5077806;28;19900;-74
2021/09/19 01:26:31;;;;;;;;;;;;;;;;;;5076060;28;19901;-74
2021/09/19 01:28:57;;;;;;;;;;;;;;;;;;5083957;28;19900;-74
2021/09/19 01:31:22;;;;;;;;;;;;;;;;;;5078763;28;19943;-74
2021/09/19 01:33:47;;;;;;;;;;;;;;;;;;5085086;28;19943;-74
2021/09/19 01:36:12;;;;;;;;;;;;;;;;;;5077318;28;19916;-74
2021/09/19 01:38:37;;;;;;;;;;;;;;;;;;5077770;28;19908;-73
2021/09/19 01:41:03;;;;;;;;;;;;;;;;;;5083846;28;19939;-74
2021/09/19 01:43:28;;;;;;;;;;;;;;;;;;5077100;28;19988;-74
2021/09/19 01:45:53;;;;;;;;;;;;;;;;;;5083980;28;19900;-74
2021/09/19 01:48:18;;;;;;;;;;;;;;;;;;5075768;28;19901;-73
2021/09/19 01:50:43;;;;;;;;;;;;;;;;;;5078901;28;19979;-73
2021/09/19 01:53:09;;;;;;;;;;;;;;;;;;5081109;28;19926;-74
2021/09/19 01:55:34;;;;;;;;;;;;;;;;;;5080150;28;19901;-74
2021/09/19 01:57:59;;;;;;;;;;;;;;;;;;5069489;28;19932;-74
2021/09/19 02:00:25;;;;;;;;;;;;;;;;;;5075479;28;19908;-74
2021/09/19 02:02:50;;;;;;;;;;;;;;;;;;5077708;28;19905;-74
2021/09/19 02:05:17;;;;;;;;;;;;;;;;;;5082247;28;20132;-74
2021/09/19 02:07:43;;;;;;;;;;;;;;;;;;5079121;28;19901;-74
2021/09/19 02:10:08;;;;;;;;;;;;;;;;;;5083241;28;20192;-74
2021/09/19 02:12:34;;;;;;;;;;;;;;;;;;5079246;28;19931;-74
2021/09/19 02:15:00;;;;;;;;;;;;;;;;;;5077025;28;19909;-74
2021/09/19 02:17:25;;;;;;;;;;;;;;;;;;5080551;28;19923;-74
2021/09/19 02:19:50;;;;;;;;;;;;;;;;;;5078599;28;19904;-74
2021/09/19 02:22:15;;;;;;;;;;;;;;;;;;5082022;28;19911;-74
2021/09/19 02:24:41;;;;;;;;;;;;;;;;;;5078966;28;19901;-74
2021/09/19 02:27:06;;;;;;;;;;;;;;;;;;5067335;28;19901;-74
2021/09/19 02:29:31;;;;;;;;;;;;;;;;;;5080424;28;19913;-74
2021/09/19 02:31:56;;;;;;;;;;;;;;;;;;5078348;28;19927;-74
2021/09/19 02:34:21;;;;;;;;;;;;;;;;;;5089743;28;19920;-74
2021/09/19 02:36:47;;;;;;;;;;;;;;;;;;5079973;28;19919;-74
2021/09/19 02:39:12;;;;;;;;;;;;;;;;;;5079728;28;19966;-73
2021/09/19 02:41:37;;;;;;;;;;;;;;;;;;5084324;28;19936;-74
2021/09/19 02:44:02;;;;;;;;;;;;;;;;;;5075045;28;19908;-73
2021/09/19 02:46:27;;;;;;;;;;;;;;;;;;5081423;28;19901;-74
2021/09/19 02:48:53;;;;;;;;;;;;;;;;;;5076186;28;19908;-74
2021/09/19 02:51:18;;;;;;;;;;;;;;;;;;5079747;28;19905;-74
2021/09/19 02:53:43;;;;;;;;;;;;;;;;;;5089786;28;19912;-75
2021/09/19 02:56:08;;;;;;;;;;;;;;;;;;5076904;28;19908;-74
2021/09/19 02:58:34;;;;;;;;;;;;;;;;;;5082310;28;19924;-74
2021/09/19 03:01:00;;;;;;;;;;;;;;;;;;5074326;28;19900;-74
2021/09/19 03:03:25;;;;;;;;;;;;;;;;;;5075859;28;19909;-74
2021/09/19 03:05:50;;;;;;;;;;;;;;;;;;5079997;28;19901;-74
2021/09/19 03:08:15;;;;;;;;;;;;;;;;;;5074849;28;19897;-74
2021/09/19 03:10:40;;;;;;;;;;;;;;;;;;5078358;28;19912;-73
2021/09/19 03:13:05;;;;;;;;;;;;;;;;;;5075348;28;20011;-74
2021/09/19 03:15:33;;;;;;;;;;;;;;;;;;5074869;28;19904;-74
2021/09/19 03:17:59;;;;;;;;;;;;;;;;;;5080153;28;19909;-74
2021/09/19 03:20:24;;;;;;;;;;;;;;;;;;5076625;28;19920;-74
2021/09/19 03:22:49;;;;;;;;;;;;;;;;;;5081556;28;19909;-74
2021/09/19 03:25:15;;;;;;;;;;;;;;;;;;5078165;28;19976;-74
2021/09/19 03:27:40;;;;;;;;;;;;;;;;;;5076504;28;19908;-74
2021/09/19 03:30:05;;;;;;;;;;;;;;;;;;5081770;28;19907;-74
2021/09/19 03:32:30;;;;;;;;;;;;;;;;;;5077669;28;19901;-74
2021/09/19 03:34:55;;;;;;;;;;;;;;;;;;5084864;28;19904;-74
2021/09/19 03:37:21;;;;;;;;;;;;;;;;;;5076888;28;19916;-74
2021/09/19 03:39:46;;;;;;;;;;;;;;;;;;5074563;28;19928;-74
2021/09/19 03:42:11;;;;;;;;;;;;;;;;;;5081956;28;20249;-74
2021/09/19 03:44:36;;;;;;;;;;;;;;;;;;5076317;28;19901;-74
2021/09/19 03:47:02;;;;;;;;;;;;;;;;;;5081462;28;19927;-74
2021/09/19 03:49:27;;;;;;;;;;;;;;;;;;5075406;28;19913;-74
2021/09/19 03:51:52;;;;;;;;;;;;;;;;;;5077591;28;19923;-74
2021/09/19 03:54:17;;;;;;;;;;;;;;;;;;5087058;28;19916;-74
2021/09/19 03:56:43;;;;;;;;;;;;;;;;;;5076948;28;20264;-74
2021/09/19 03:59:08;;;;;;;;;;;;;;;;;;5085023;28;19912;-75
2021/09/19 04:01:33;;;;;;;;;;;;;;;;;;5080255;28;19927;-74
2021/09/19 04:03:58;;;;;;;;;;;;;;;;;;5077410;28;19927;-74
2021/09/19 04:06:23;;;;;;;;;;;;;;;;;;5088061;28;19940;-74
2021/09/19 04:08:49;;;;;;;;;;;;;;;;;;5079100;28;19900;-74
2021/09/19 04:11:16;;;;;;;;;;;;;;;;;;5084203;28;19939;-74
2021/09/19 04:13:41;;;;;;;;;;;;;;;;;;5080395;28;19912;-74
2021/09/19 04:16:06;;;;;;;;;;;;;;;;;;5079126;28;19912;-74
2021/09/19 04:18:32;;;;;;;;;;;;;;;;;;5083754;28;20198;-74
2021/09/19 04:20:57;;;;;;;;;;;;;;;;;;5079808;28;19908;-74
2021/09/19 04:23:22;;;;;;;;;;;;;;;;;;5085653;28;19916;-74
2021/09/19 04:25:47;;;;;;;;;;;;;;;;;;5080519;28;20149;-74
2021/09/19 04:28:15;;;;;;;;;;;;;;;;;;5081080;28;20157;-74
2021/09/19 04:30:40;;;;;;;;;;;;;;;;;;5088298;28;19919;-74
2021/09/19 04:33:06;;;;;;;;;;;;;;;;;;5080680;28;19936;-74
2021/09/19 04:35:31;;;;;;;;;;;;;;;;;;5082924;28;19909;-74
2021/09/19 04:37:56;;;;;;;;;;;;;;;;;;5079174;28;19941;-74
2021/09/19 04:40:21;;;;;;;;;;;;;;;;;;5077306;28;19919;-73
2021/09/19 04:42:47;;;;;;;;;;;;;;;;;;5083480;28;19900;-75
2021/09/19 04:45:12;;;;;;;;;;;;;;;;;;5075739;28;19948;-74
2021/09/19 04:47:37;;;;;;;;;;;;;;;;;;5069024;28;19908;-74
2021/09/19 04:50:02;;;;;;;;;;;;;;;;;;5080749;28;19908;-74
2021/09/19 04:52:27;;;;;;;;;;;;;;;;;;5076055;28;19940;-74
2021/09/19 04:54:53;;;;;;;;;;;;;;;;;;5091465;28;19913;-74
2021/09/19 04:57:18;;;;;;;;;;;;;;;;;;5078155;28;19908;-74
2021/09/19 04:59:43;;;;;;;;;;;;;;;;;;5083429;28;19905;-74
2021/09/19 05:02:08;;;;;;;;;;;;;;;;;;5077656;28;19909;-74
2021/09/19 05:04:34;;;;;;;;;;;;;;;;;;5062150;28;19986;-74
2021/09/19 05:06:59;;;;;;;;;;;;;;;;;;5085116;28;19909;-74
2021/09/19 05:09:24;;;;;;;;;;;;;;;;;;5076902;28;19905;-74
2021/09/19 05:11:49;;;;;;;;;;;;;;;;;;5083482;28;19897;-74
2021/09/19 05:14:14;;;;;;;;;;;;;;;;;;5078654;28;19919;-74
2021/09/19 05:16:40;;;;;;;;;;;;;;;;;;5079353;28;19939;-75
2021/09/19 05:19:05;;;;;;;;;;;;;;;;;;5082853;28;19905;-74
2021/09/19 05:21:30;;;;;;;;;;;;;;;;;;5078200;28;19915;-74
2021/09/19 05:23:57;;;;;;;;;;;;;;;;;;5082328;28;19944;-74
2021/09/19 05:26:23;;;;;;;;;;;;;;;;;;5076602;28;19951;-74
2021/09/19 05:28:48;;;;;;;;;;;;;;;;;;5079923;28;19901;-74
2021/09/19 05:31:13;;;;;;;;;;;;;;;;;;5085597;28;19979;-74
2021/09/19 05:33:38;;;;;;;;;;;;;;;;;;5077212;28;19939;-74
2021/09/19 05:36:04;;;;;;;;;;;;;;;;;;5087330;28;20336;-74
2021/09/19 05:38:29;;;;;;;;;;;;;;;;;;5075515;28;19901;-74
2021/09/19 05:40:54;;;;;;;;;;;;;;;;;;5077002;28;20014;-74
2021/09/19 05:43:19;;;;;;;;;;;;;;;;;;5084131;28;19901;-74
2021/09/19 05:45:45;;;;;;;;;;;;;;;;;;5076918;28;19935;-74
2021/09/19 05:48:10;;;;;;;;;;;;;;;;;;5083623;28;19932;-74
2021/09/19 05:50:37;;;;;;;;;;;;;;;;;;5078875;28;19935;-73
2021/09/19 05:53:03;;;;;;;;;;;;;;;;;;5075628;28;19936;-74
2021/09/19 05:55:28;;;;;;;;;;;;;;;;;;5083221;28;19920;-74
2021/09/19 05:57:56;;;;;;;;;;;;;;;;;;5093240;28;19984;-74
2021/09/19 06:00:21;;;;;;;;;;;;;;;;;;5082765;28;19909;-73
2021/09/19 06:02:46;;;;;;;;;;;;;;;;;;5080353;28;19968;-75
2021/09/19 06:05:12;;;;;;;;;;;;;;;;;;5080535;28;20189;-76
2021/09/19 06:07:37;;;;;;;;;;;;;;;;;;5091007;28;19960;-75
2021/09/19 06:10:02;;;;;;;;;;;;;;;;;;5076807;28;19912;-74
2021/09/19 06:12:27;;;;;;;;;;;;;;;;;;5081198;28;19904;-74
2021/09/19 06:14:53;;;;;;;;;;;;;;;;;;5082124;28;19912;-74
2021/09/19 06:17:20;;;;;;;;;;;;;;;;;;5077695;28;19905;-74
2021/09/19 06:19:45;;;;;;;;;;;;;;;;;;5090860;28;19900;-74
2021/09/19 06:22:11;;;;;;;;;;;;;;;;;;5076633;28;19926;-74
2021/09/19 06:24:36;;;;;;;;;;;;;;;;;;5077437;28;19986;-74
2021/09/19 06:27:04;;;;;;;;;;;;;;;;;;5081837;28;19901;-74
2021/09/19 06:29:29;;;;;;;;;;;;;;;;;;5075400;28;19912;-74
2021/09/19 06:31:54;;;;;;;;;;;;;;;;;;5084847;28;19900;-74
2021/09/19 06:34:19;;;;;;;;;;;;;;;;;;5079154;28;19915;-75
2021/09/19 06:36:45;;;;;;;;;;;;;;;;;;5078034;28;19913;-74
2021/09/19 06:39:10;;;;;;;;;;;;;;;;;;5086047;28;19908;-75
2021/09/19 06:41:35;;;;;;;;;;;;;;;;;;5286230;23;20015;-71
2021/09/19 06:44:00;;;;;;;;;;;;;;;;;;5015886;28;20010;-70
2021/09/19 06:46:29;;;;;;;;;;;;;;;;;;5009304;28;19921;-72
2021/09/19 06:48:55;;;;;;;;;;;;;;;;;;5008474;28;20260;-70
2021/09/19 06:54:10;;;;;;;;;;;;;;;;;;4983377;28;19980;-72
2021/09/19 06:56:35;;;;;;;;;;;;;;;;;;4987216;28;19922;-70
2021/09/19 06:59:00;;;;;;;;;;;;;;;;;;4987846;28;19914;-70
2021/09/19 07:01:26;;;;;;;;;;;;;;;;;;4987610;28;19922;-72
2021/09/19 07:03:51;;;;;;;;;;;;;;;;;;4987175;28;19925;-72
2021/09/19 07:06:16;;;;;;;;;;;;;;;;;;4988077;28;19952;-71
2021/09/19 07:08:44;;;;;;;;;;;;;;;;;;4986977;28;19956;-69
2021/09/19 07:11:09;;;;;;;;;;;;;;;;;;4978005;28;19918;-71
2021/09/19 07:13:34;;;;;;;;;;;;;;;;;;4977806;28;19926;-69
2021/09/19 07:16:00;;;;;;;;;;;;;;;;;;4984838;28;19918;-71
2021/09/19 07:18:25;;;;;;;;;;;;;;;;;;4980107;28;20231;-73
2021/09/19 07:20:53;;;;;;;;;;;;;;;;;;4984907;28;19917;-74
2021/09/19 07:23:18;;;;;;;;;;;;;;;;;;4979296;28;19925;-70
2021/09/19 07:25:43;;;;;;;;;;;;;;;;;;4980470;28;19922;-71
2021/09/19 07:28:08;;;;;;;;;;;;;;;;;;4986172;28;19918;-73
2021/09/19 07:30:34;;;;;;;;;;;;;;;;;;4977518;28;19925;-71
2021/09/19 07:32:59;;;;;;;;;;;;;;;;;;4984774;28;19924;-72
2021/09/19 07:35:24;;;;;;;;;;;;;;;;;;4983346;28;19972;-69
2021/09/19 07:37:49;;;;;;;;;;;;;;;;;;4982220;28;19980;-72
2021/09/19 07:40:15;;;;;;;;;;;;;;;;;;4987975;28;20001;-74
2021/09/19 07:42:40;;;;;;;;;;;;;;;;;;4981760;28;19925;-71
2021/09/19 07:45:05;;;;;;;;;;;;;;;;;;4991417;28;19921;-71
2021/09/19 07:47:30;;;;;;;;;;;;;;;;;;4980031;28;19918;-72
2021/09/19 07:49:55;;;;;;;;;;;;;;;;;;5018135;23;19918;-70
2021/09/19 07:52:21;;;;;;;;;;;;;;;;;;4999542;28;20339;-72
2021/09/19 07:54:46;;;;;;;;;;;;;;;;;;4978730;28;20294;-71
2021/09/19 07:57:11;;;;;;;;;;;;;;;;;;4999450;28;19918;-71
2021/09/19 07:59:37;;;;;;;;;;;;;;;;;;4994820;28;20333;-71
2021/09/19 08:02:02;;;;;;;;;;;;;;;;;;4995856;28;19961;-70
2021/09/19 08:04:27;;;;;;;;;;;;;;;;;;4995948;28;19918;-70
2021/09/19 08:06:53;;;;;;;;;;;;;;;;;;4997559;28;19917;-71
2021/09/19 08:09:18;;;;;;;;;;;;;;;;;;5001279;28;19918;-70
2021/09/19 08:11:43;;;;;;;;;;;;;;;;;;4995773;28;19918;-73
2021/09/19 08:14:08;;;;;;;;;;;;;;;;;;5005312;28;20306;-70
2021/09/19 08:16:34;;;;;;;;;;;;;;;;;;5016535;28;19921;-70
2021/09/19 08:18:59;;;;;;;;;;;;;;;;;;5011946;28;19917;-70
2021/09/19 08:21:27;;;;;;;;;;;;;;;;;;5016805;28;19936;-70
2021/09/19 08:23:52;;;;;;;;;;;;;;;;;;5011710;28;20439;-71
2021/09/19 08:26:17;;;;;;;;;;;;;;;;;;5002712;28;20016;-70
2021/09/19 08:28:43;;;;;;;;;;;;;;;;;;5019266;28;19917;-70
2021/09/19 08:31:10;;;;;;;;;;;;;;;;;;5010738;28;19932;-70
2021/09/19 08:33:35;;;;;;;;;;;;;;;;;;5016077;28;19921;-70
2021/09/19 08:36:01;;;;;;;;;;;;;;;;;;5013212;28;19913;-70
2021/09/19 08:38:26;;;;;;;;;;;;;;;;;;5009925;28;19921;-73
2021/09/19 08:40:51;;;;;;;;;;;;;;;;;;5017006;28;19921;-72
2021/09/19 08:43:16;;;;;;;;;;;;;;;;;;5010542;28;19921;-72
2021/09/19 08:45:41;;;;;;;;;;;;;;;;;;5016011;28;19917;-71
2021/09/19 08:48:07;;;;;;;;;;;;;;;;;;5014916;28;19972;-70
2021/09/19 08:50:32;;;;;;;;;;;;;;;;;;5013742;28;19933;-71
2021/09/19 08:52:57;;;;;;;;;;;;;;;;;;5015676;28;20394;-71
2021/09/19 08:55:23;;;;;;;;;;;;;;;;;;5010911;28;20788;-71
2021/09/19 08:57:49;;;;;;;;;;;;;;;;;;5017547;28;19939;-74
2021/09/19 09:00:16;;;;;;;;;;;;;;;;;;4987845;28;19932;-71
2021/09/19 09:02:41;;;;;;;;;;;;;;;;;;5010954;28;19924;-71
2021/09/19 09:05:07;;;;;;;;;;;;;;;;;;5014908;28;19932;-72
2021/09/19 09:07:32;;;;;;;;;;;;;;;;;;5011648;28;20447;-72
2021/09/19 09:09:57;;;;;;;;;;;;;;;;;;5007968;28;19925;-72
2021/09/19 09:12:22;;;;;;;;;;;;;;;;;;5015775;28;20441;-71
2021/09/19 09:14:48;;;;;;;;;;;;;;;;;;5013283;28;19944;-71
2021/09/19 09:17:13;;;;;;;;;;;;;;;;;;5017850;28;20209;-71
2021/09/19 09:19:38;;;;;;;;;;;;;;;;;;5008511;28;20340;-71
2021/09/19 09:22:03;;;;;;;;;;;;;;;;;;5006593;28;19956;-70
2021/09/19 09:24:29;;;;;;;;;;;;;;;;;;5018497;28;19921;-70
2021/09/19 09:26:54;;;;;;;;;;;;;;;;;;5009184;28;19917;-73
2021/09/19 09:29:19;;;;;;;;;;;;;;;;;;5014755;28;20291;-71
2021/09/19 09:31:44;;;;;;;;;;;;;;;;;;5012595;28;19921;-71
2021/09/19 09:34:09;;;;;;;;;;;;;;;;;;5009964;28;19922;-72
2021/09/19 09:36:35;;;;;;;;;;;;;;;;;;5017011;28;19931;-71
2021/09/19 09:39:00;;;;;;;;;;;;;;;;;;5009995;28;19999;-70
2021/09/19 09:41:25;;;;;;;;;;;;;;;;;;5017210;28;19917;-71
2021/09/19 09:43:50;;;;;;;;;;;;;;;;;;5009124;28;20102;-71
2021/09/19 09:46:16;;;;;;;;;;;;;;;;;;5009942;28;19924;-71
2021/09/19 09:48:41;;;;;;;;;;;;;;;;;;5012929;28;19918;-72
2021/09/19 09:51:08;;;;;;;;;;;;;;;;;;5008244;28;19921;-71
2021/09/19 09:53:34;;;;;;;;;;;;;;;;;;5017693;28;19922;-73
2021/09/19 09:55:59;;;;;;;;;;;;;;;;;;5007298;28;19968;-70
2021/09/19 09:58:24;;;;;;;;;;;;;;;;;;5010636;28;20317;-71
2021/09/19 10:00:50;;;;;;;;;;;;;;;;;;5012808;28;20016;-71
2021/09/19 10:03:15;;;;;;;;;;;;;;;;;;5010116;28;19917;-71
2021/09/19 10:05:40;;;;;;;;;;;;;;;;;;5014688;28;19948;-71
2021/09/19 10:08:06;;;;;;;;;;;;;;;;;;4993992;28;20381;-70
2021/09/19 10:10:32;;;;;;;;;;;;;;;;;;5008775;28;20183;-71
2021/09/19 10:13:00;;;;;;;;;;;;;;;;;;5012089;28;20405;-70
2021/09/19 10:15:25;;;;;;;;;;;;;;;;;;5003147;28;19928;-68
2021/09/19 10:17:50;;;;;;;;;;;;;;;;;;5014047;28;19921;-71
2021/09/19 10:20:15;;;;;;;;;;;;;;;;;;5004146;28;19924;-68
2021/09/19 10:22:40;;;;;;;;;;;;;;;;;;5007657;28;19923;-69
2021/09/19 10:25:06;;;;;;;;;;;;;;;;;;5017865;28;19918;-70
2021/09/19 10:27:31;;;;;;;;;;;;;;;;;;5008529;28;19913;-70
2021/09/19 10:29:57;;;;;;;;;;;;;;;;;;5016211;28;20377;-69
2021/09/19 10:32:22;;;;;;;;;;;;;;;;;;5007593;28;20282;-68
2021/09/19 10:34:50;;;;;;;;;;;;;;;;;;5007518;28;20692;-68
2021/09/19 10:37:15;;;;;;;;;;;;;;;;;;5015793;28;19917;-69
2021/09/19 10:39:41;;;;;;;;;;;;;;;;;;5007435;28;20435;-69
2021/09/19 10:42:06;;;;;;;;;;;;;;;;;;5015648;28;19924;-69
2021/09/19 10:44:32;;;;;;;;;;;;;;;;;;5008421;28;20297;-69
2021/09/19 10:46:58;;;;;;;;;;;;;;;;;;4994138;28;20286;-71
2021/09/19 10:49:24;;;;;;;;;;;;;;;;;;5014568;28;20295;-69
2021/09/19 10:51:49;;;;;;;;;;;;;;;;;;5008617;28;19921;-70
2021/09/19 10:54:14;;;;;;;;;;;;;;;;;;5016258;28;20337;-69
2021/09/19 10:56:39;;;;;;;;;;;;;;;;;;5008987;28;19929;-69
2021/09/19 10:59:07;;;;;;;;;;;;;;;;;;5008367;28;20320;-69
2021/09/19 11:01:37;;;;;;;;;;;;;;;;;;5015763;28;19913;-69
2021/09/19 11:04:03;;;;;;;;;;;;;;;;;;5007773;28;20453;-70
2021/09/19 11:06:29;;;;;;;;;;;;;;;;;;5014611;28;19913;-67
2021/09/19 11:08:57;;;;;;;;;;;;;;;;;;5007819;28;19917;-68
2021/09/19 11:11:22;;;;;;;;;;;;;;;;;;5009567;28;19917;-67
2021/09/19 11:13:53;;;;;;;;;;;;;;;;;;5016472;28;19917;-69
2021/09/19 11:16:18;;;;;;;;;;;;;;;;;;5007789;28;19966;-71
2021/09/19 11:18:43;;;;;;;;;;;;;;;;;;5013704;28;19947;-71
2021/09/19 11:21:09;;;;;;;;;;;;;;;;;;5010044;28;19918;-71
2021/09/19 11:23:34;;;;;;;;;;;;;;;;;;5009765;28;19917;-72
2021/09/19 11:25:59;;;;;;;;;;;;;;;;;;5013995;28;20278;-72
2021/09/19 11:28:27;;;;;;;;;;;;;;;;;;5012198;28;19918;-72
2021/09/19 11:30:52;;;;;;;;;;;;;;;;;;5014902;28;19924;-72
2021/09/19 11:33:17;;;;;;;;;;;;;;;;;;5014572;28;19964;-71
2021/09/19 11:35:42;;;;;;;;;;;;;;;;;;5008071;28;19933;-72
2021/09/19 11:38:08;;;;;;;;;;;;;;;;;;5014834;28;19917;-72
2021/09/19 11:40:33;;;;;;;;;;;;;;;;;;5000570;28;19921;-73
2021/09/19 11:42:59;;;;;;;;;;;;;;;;;;5013160;28;19917;-73
2021/09/19 11:45:24;;;;;;;;;;;;;;;;;;5006171;28;19922;-72
2021/09/19 11:47:54;;;;;;;;;;;;;;;;;;5007244;28;19918;-73
2021/09/19 11:50:21;;;;;;;;;;;;;;;;;;5015362;28;19921;-73
2021/09/19 11:52:47;;;;;;;;;;;;;;;;;;5010507;28;19921;-71
2021/09/19 11:55:12;;;;;;;;;;;;;;;;;;5014749;28;20290;-72
2021/09/19 11:57:37;;;;;;;;;;;;;;;;;;5010923;28;20015;-72
2021/09/19 12:00:02;;;;;;;;;;;;;;;;;;4999782;28;19999;-72
2021/09/19 12:02:39;;;;;;;;;;;;;;;;;;5014154;28;20427;-73
2021/09/19 12:05:05;;;;;;;;;;;;;;;;;;5009534;28;20221;-73
2021/09/19 12:07:30;;;;;;;;;;;;;;;;;;5006405;28;19925;-71
2021/09/19 12:09:55;;;;;;;;;;;;;;;;;;5014827;28;19914;-72
2021/09/19 12:12:20;;;;;;;;;;;;;;;;;;5011973;28;20282;-73
2021/09/19 12:14:46;;;;;;;;;;;;;;;;;;5014499;28;20645;-72
2021/09/19 12:17:11;;;;;;;;;;;;;;;;;;5014460;28;20263;-73
2021/09/19 12:19:36;;;;;;;;;;;;;;;;;;5014133;28;19928;-72
2021/09/19 12:22:02;;;;;;;;;;;;;;;;;;5019669;28;19980;-72
2021/09/19 12:24:27;;;;;;;;;;;;;;;;;;5014988;28;20007;-72
2021/09/19 12:26:52;;;;;;;;;;;;;;;;;;5016418;28;19969;-72
2021/09/19 12:29:19;;;;;;;;;;;;;;;;;;5023044;28;20280;-70
2021/09/19 12:31:44;;;;;;;;;;;;;;;;;;5015127;28;19951;-70
2021/09/19 12:34:09;;;;;;;;;;;;;;;;;;5017840;28;20286;-72
2021/09/19 12:36:34;;;;;;;;;;;;;;;;;;5017768;28;19921;-69
2021/09/19 12:39:00;;;;;;;;;;;;;;;;;;5020437;28;19956;-70
2021/09/19 12:41:25;;;;;;;;;;;;;;;;;;5018163;28;20022;-71
2021/09/19 12:43:50;;;;;;;;;;;;;;;;;;5016724;28;19925;-71
2021/09/19 12:46:16;;;;;;;;;;;;;;;;;;5019914;28;19918;-71
2021/09/19 12:48:41;;;;;;;;;;;;;;;;;;5015137;28;20389;-71
2021/09/19 12:51:10;;;;;;;;;;;;;;;;;;5016447;28;19974;-71
2021/09/19 12:53:35;;;;;;;;;;;;;;;;;;5019370;28;20724;-71
2021/09/19 12:56:00;;;;;;;;;;;;;;;;;;5016722;28;19921;-72
2021/09/19 12:58:26;;;;;;;;;;;;;;;;;;5018103;28;20003;-72
2021/09/19 13:00:51;;;;;;;;;;;;;;;;;;5010143;28;19925;-72
2021/09/19 13:03:18;;;;;;;;;;;;;;;;;;5018276;28;19913;-71
2021/09/19 13:05:43;;;;;;;;;;;;;;;;;;5015268;28;19920;-71
2021/09/19 13:08:08;;;;;;;;;;;;;;;;;;5015623;28;19917;-71
2021/09/19 13:10:33;;;;;;;;;;;;;;;;;;5017745;28;19967;-71
2021/09/19 13:12:59;;;;;;;;;;;;;;;;;;5020462;28;20348;-71
2021/09/19 13:15:24;;;;;;;;;;;;;;;;;;5017284;28;19968;-72
2021/09/19 13:17:49;;;;;;;;;;;;;;;;;;5032714;28;20444;-71
2021/09/19 13:20:15;;;;;;;;;;;;;;;;;;5019709;28;19920;-71
2021/09/19 13:22:40;;;;;;;;;;;;;;;;;;5017812;28;20370;-73
2021/09/19 13:25:05;;;;;;;;;;;;;;;;;;5021093;28;19949;-71
2021/09/19 13:27:30;;;;;;;;;;;;;;;;;;5014786;28;20420;-72
2021/09/19 13:29:55;;;;;;;;;;;;;;;;;;5012565;28;19917;-70
2021/09/19 13:32:21;;;;;;;;;;;;;;;;;;5016503;28;19917;-71
2021/09/19 13:34:46;;;;;;;;;;;;;;;;;;5015198;28;19922;-70
2021/09/19 13:37:11;;;;;;;;;;;;;;;;;;5015950;28;20390;-70
2021/09/19 13:39:37;;;;;;;;;;;;;;;;;;5016752;28;20486;-71
2021/09/19 13:42:02;;;;;;;;;;;;;;;;;;5014986;28;19990;-71
2021/09/19 13:44:29;;;;;;;;;;;;;;;;;;5018227;28;20011;-71
2021/09/19 13:46:56;;;;;;;;;;;;;;;;;;5017179;28;20000;-70
2021/09/19 13:49:24;;;;;;;;;;;;;;;;;;5016010;28;20329;-70
2021/09/19 13:51:49;;;;;;;;;;;;;;;;;;5016752;28;19922;-71
2021/09/19 13:54:14;;;;;;;;;;;;;;;;;;5017702;28;19928;-70
2021/09/19 13:56:39;;;;;;;;;;;;;;;;;;5016219;28;19928;-70
2021/09/19 13:59:04;;;;;;;;;;;;;;;;;;5018160;28;19945;-71
2021/09/19 14:01:30;;;;;;;;;;;;;;;;;;5014569;28;19921;-70
2021/09/19 14:03:55;;;;;;;;;;;;;;;;;;5015698;28;19963;-70
2021/09/19 14:06:20;;;;;;;;;;;;;;;;;;5002026;28;19923;-70
2021/09/19 14:08:45;;;;;;;;;;;;;;;;;;5016238;28;19964;-70
2021/09/19 14:11:11;;;;;;;;;;;;;;;;;;5017500;28;19918;-70
2021/09/19 14:13:36;;;;;;;;;;;;;;;;;;5014710;28;19924;-70
2021/09/19 14:16:01;;;;;;;;;;;;;;;;;;5016888;28;20274;-70
2021/09/19 14:18:26;;;;;;;;;;;;;;;;;;5016579;28;19949;-70
2021/09/19 14:20:51;;;;;;;;;;;;;;;;;;5017869;28;19924;-71
2021/09/19 14:23:17;;;;;;;;;;;;;;;;;;5017383;28;20307;-70
2021/09/19 14:25:42;;;;;;;;;;;;;;;;;;5014512;28;20286;-69
2021/09/19 14:28:07;;;;;;;;;;;;;;;;;;5014803;28;19921;-69
2021/09/19 14:30:32;;;;;;;;;;;;;;;;;;5017963;28;20271;-70
2021/09/19 14:32:58;;;;;;;;;;;;;;;;;;5014688;28;19959;-71
2021/09/19 14:35:23;;;;;;;;;;;;;;;;;;5017503;28;19926;-70
2021/09/19 14:37:48;;;;;;;;;;;;;;;;;;5016347;28;19924;-70
2021/09/19 14:40:14;;;;;;;;;;;;;;;;;;5016662;28;19921;-70
2021/09/19 14:42:40;;;;;;;;;;;;;;;;;;5015201;28;20302;-70
2021/09/19 14:45:05;;;;;;;;;;;;;;;;;;5014365;28;19917;-70
2021/09/19 14:47:31;;;;;;;;;;;;;;;;;;5014549;28;20377;-69
2021/09/19 14:49:56;;;;;;;;;;;;;;;;;;5016077;28;20056;-70
2021/09/19 14:52:21;;;;;;;;;;;;;;;;;;5016462;28;20051;-70
2021/09/19 14:54:47;;;;;;;;;;;;;;;;;;5017269;28;19943;-70
2021/09/19 14:57:12;;;;;;;;;;;;;;;;;;5014801;28;19949;-71
2021/09/19 14:59:37;;;;;;;;;;;;;;;;;;5008983;28;20206;-71
2021/09/19 15:02:02;;;;;;;;;;;;;;;;;;5015279;28;19924;-70
2021/09/19 15:04:28;;;;;;;;;;;;;;;;;;5016870;28;19924;-70
2021/09/19 15:06:53;;;;;;;;;;;;;;;;;;5017638;28;19924;-71
2021/09/19 15:09:18;;;;;;;;;;;;;;;;;;5016658;28;19967;-71
2021/09/19 15:11:44;;;;;;;;;;;;;;;;;;5015136;28;20032;-73
2021/09/19 15:14:09;;;;;;;;;;;;;;;;;;5014037;28;19975;-72
2021/09/19 15:16:34;;;;;;;;;;;;;;;;;;5011460;28;20271;-72
2021/09/19 15:19:01;;;;;;;;;;;;;;;;;;5014323;28;20363;-71
2021/09/19 15:21:26;;;;;;;;;;;;;;;;;;5014469;28;19939;-71
2021/09/19 15:23:51;;;;;;;;;;;;;;;;;;5014070;28;20571;-72
2021/09/19 15:26:16;;;;;;;;;;;;;;;;;;5013729;28;19913;-71
2021/09/19 15:28:42;;;;;;;;;;;;;;;;;;5014123;28;19966;-71
2021/09/19 15:31:07;;;;;;;;;;;;;;;;;;5018831;28;19931;-72
2021/09/19 15:33:33;;;;;;;;;;;;;;;;;;5013908;28;20259;-71
2021/09/19 15:36:00;;;;;;;;;;;;;;;;;;5017394;28;19917;-72
2021/09/19 15:38:25;;;;;;;;;;;;;;;;;;5015490;28;19929;-73
2021/09/19 15:41:09;;;;;;;;;;;;;;;;;;5021616;28;19972;-70
2021/09/19 15:43:34;;;;;;;;;;;;;;;;;;5013378;28;20385;-71
2021/09/19 15:46:01;;;;;;;;;;;;;;;;;;5015903;28;19917;-69
2021/09/19 15:48:29;;;;;;;;;;;;;;;;;;5013778;28;19918;-70
2021/09/19 15:50:54;;;;;;;;;;;;;;;;;;5016692;28;20252;-72
2021/09/19 15:53:20;;;;;;;;;;;;;;;;;;5015933;28;19917;-74
2021/09/19 15:55:45;;;;;;;;;;;;;;;;;;5018181;28;20325;-72
2021/09/19 15:58:12;;;;;;;;;;;;;;;;;;5019614;28;19917;-72
2021/09/19 16:00:38;;;;;;;;;;;;;;;;;;5018916;28;19924;-71
2021/09/19 16:03:03;;;;;;;;;;;;;;;;;;5017794;28;19917;-72
2021/09/19 16:05:29;;;;;;;;;;;;;;;;;;5017836;28;19952;-70
2021/09/19 16:07:55;;;;;;;;;;;;;;;;;;5016076;28;19921;-70
2021/09/19 16:10:20;;;;;;;;;;;;;;;;;;5022309;28;20040;-70
2021/09/19 16:12:45;;;;;;;;;;;;;;;;;;5015207;28;19932;-70
2021/09/19 16:15:10;;;;;;;;;;;;;;;;;;5018700;28;19924;-69
2021/09/19 16:17:37;;;;;;;;;;;;;;;;;;5018144;28;19975;-72
2021/09/19 16:20:02;;;;;;;;;;;;;;;;;;5015672;28;19913;-69
2021/09/19 16:22:27;;;;;;;;;;;;;;;;;;5018826;28;19921;-72
2021/09/19 16:24:52;;;;;;;;;;;;;;;;;;5018753;28;19921;-72
2021/09/19 16:27:17;;;;;;;;;;;;;;;;;;5017745;28;19995;-72
2021/09/19 16:29:43;;;;;;;;;;;;;;;;;;5019610;28;19963;-70
2021/09/19 16:32:08;;;;;;;;;;;;;;;;;;5015130;28;20293;-70
2021/09/19 16:34:33;;;;;;;;;;;;;;;;;;5018070;28;19928;-70
2021/09/19 16:37:00;;;;;;;;;;;;;;;;;;5017790;28;19928;-71